Time;durP1;ratioP1;P1;durP2;ratioP2;P2;SDS_P1;SDS_P2;PMS_P1;PMS_P2;Temp;Humidity;BMP_temperature;BMP_pressure;BME280_temperature;BME280_humidity;BME280_pressure;Samples;Min_cycle;Max_cycle;Signal;HPM_P1;HPM_P2
2023/01/04 00:01:43;;;;;;;1.60;1.20;;;8.50;98.20;;;;;;4992464;28;20484;-75
2023/01/04 00:04:11;;;;;;;1.60;1.20;;;8.60;98.20;;;;;;4995105;28;20493;-76
2023/01/04 00:06:38;;;;;;;1.60;1.23;;;8.60;98.20;;;;;;4993148;28;20488;-75
2023/01/04 00:09:05;;;;;;;1.60;1.20;;;8.70;98.20;;;;;;5000402;28;20865;-76
2023/01/04 00:11:31;;;;;;;1.60;1.10;;;8.70;98.20;;;;;;4988625;28;20484;-75
2023/01/04 00:13:59;;;;;;;1.60;1.10;;;8.80;98.20;;;;;;5001469;28;20500;-75
2023/01/04 00:16:27;;;;;;;1.60;1.20;;;8.80;98.20;;;;;;4985026;28;20881;-76
2023/01/04 00:18:55;;;;;;;1.60;1.20;;;8.80;98.20;;;;;;5002547;28;20948;-75
2023/01/04 00:21:25;;;;;;;1.60;1.20;;;8.90;98.20;;;;;;5011936;28;20503;-75
2023/01/04 00:23:53;;;;;;;1.60;1.20;;;8.90;98.20;;;;;;4989805;28;20481;-76
2023/01/04 00:26:22;;;;;;;1.60;1.20;;;8.90;98.20;;;;;;4983430;28;20476;-76
2023/01/04 00:28:53;;;;;;;1.60;1.20;;;9.00;98.20;;;;;;5006764;28;20460;-75
2023/01/04 00:31:21;;;;;;;1.60;1.20;;;9.00;98.20;;;;;;4991110;28;20999;-76
2023/01/04 00:33:47;;;;;;;1.60;1.20;;;9.10;98.20;;;;;;5001783;28;20848;-76
2023/01/04 00:36:15;;;;;;;1.60;1.20;;;9.10;98.20;;;;;;4993268;28;21109;-76
2023/01/04 00:38:43;;;;;;;1.60;1.13;;;9.10;98.20;;;;;;5007347;28;20832;-76
2023/01/04 00:41:11;;;;;;;1.60;1.30;;;9.10;98.20;;;;;;4994900;28;20495;-75
2023/01/04 00:43:38;;;;;;;1.70;1.27;;;9.10;98.20;;;;;;4998047;28;20488;-75
2023/01/04 00:46:05;;;;;;;1.60;1.30;;;9.20;98.20;;;;;;4988467;28;20483;-76
2023/01/04 00:48:32;;;;;;;1.60;1.20;;;9.20;98.20;;;;;;5009366;28;21003;-76
2023/01/04 00:50:59;;;;;;;1.60;1.23;;;9.20;98.20;;;;;;5012906;28;20872;-76
2023/01/04 00:53:26;;;;;;;1.60;1.20;;;9.20;98.20;;;;;;4992435;28;20564;-76
2023/01/04 00:55:59;;;;;;;1.60;1.20;;;9.20;98.20;;;;;;4983603;28;20464;-74
2023/01/04 00:58:26;;;;;;;1.60;1.20;;;9.20;98.20;;;;;;4988305;28;20465;-77
2023/01/04 01:00:53;;;;;;;1.60;1.17;;;9.20;98.20;;;;;;4991365;28;20464;-77
2023/01/04 01:03:26;;;;;;;1.70;1.20;;;9.10;98.20;;;;;;4988621;28;21010;-76
2023/01/04 01:05:52;;;;;;;1.60;1.20;;;9.10;98.20;;;;;;4977485;28;20471;-76
2023/01/04 01:08:25;;;;;;;1.60;1.20;;;9.10;98.20;;;;;;4997940;28;20950;-76
2023/01/04 01:10:52;;;;;;;1.60;1.20;;;9.10;98.20;;;;;;4989212;28;20491;-76
2023/01/04 01:13:20;;;;;;;1.60;1.20;;;9.10;98.20;;;;;;5000332;28;20485;-76
2023/01/04 01:15:47;;;;;;;1.60;1.20;;;9.10;98.20;;;;;;4997527;28;20468;-76
2023/01/04 01:18:14;;;;;;;3.50;2.30;;;9.00;98.20;;;;;;4994451;28;20477;-76
2023/01/04 01:20:43;;;;;;;1.60;1.20;;;9.00;98.20;;;;;;5021703;28;20455;-76
2023/01/04 01:23:11;;;;;;;1.60;1.27;;;9.00;98.20;;;;;;4984894;28;20550;-76
2023/01/04 01:25:38;;;;;;;1.60;1.20;;;9.00;98.20;;;;;;5000204;28;20464;-76
2023/01/04 01:28:05;;;;;;;1.60;1.20;;;9.00;98.20;;;;;;4988040;28;20486;-75
2023/01/04 01:30:33;;;;;;;1.60;1.20;;;8.90;98.20;;;;;;5004035;28;20518;-76
2023/01/04 01:33:00;;;;;;;1.60;1.20;;;8.90;98.20;;;;;;4992380;28;20472;-75
2023/01/04 01:35:27;;;;;;;1.60;1.20;;;8.90;98.20;;;;;;4999485;28;20978;-77
2023/01/04 01:37:54;;;;;;;1.60;1.20;;;8.90;98.20;;;;;;4987480;28;20485;-76
2023/01/04 01:40:20;;;;;;;1.60;1.20;;;8.90;98.20;;;;;;4991363;28;20480;-76
2023/01/04 01:42:47;;;;;;;1.60;1.20;;;8.90;98.20;;;;;;4996416;28;20484;-76
2023/01/04 01:45:26;;;;;;;1.60;1.20;;;8.90;98.20;;;;;;4993766;28;20949;-76
2023/01/04 01:47:59;;;;;;;1.60;1.20;;;8.80;98.20;;;;;;4986484;28;21081;-76
2023/01/04 01:50:30;;;;;;;1.60;1.20;;;8.80;98.20;;;;;;5017019;28;20491;-76
2023/01/04 01:53:00;;;;;;;1.60;1.17;;;8.80;98.20;;;;;;4985666;28;20862;-76
2023/01/04 01:55:30;;;;;;;1.60;1.20;;;8.90;98.20;;;;;;5003732;28;20471;-77
2023/01/04 01:57:58;;;;;;;1.60;1.20;;;8.90;98.20;;;;;;4984320;28;20480;-76
2023/01/04 02:00:25;;;;;;;1.60;1.23;;;8.90;98.20;;;;;;4995942;28;20515;-77
2023/01/04 02:03:12;;;;;;;1.60;1.20;;;8.90;98.20;;;;;;4997040;28;20488;-78
2023/01/04 02:05:39;;;;;;;1.60;1.20;;;8.90;98.20;;;;;;5004643;28;20452;-78
2023/01/04 02:08:07;;;;;;;1.60;1.20;;;8.90;98.20;;;;;;4989126;28;20866;-77
2023/01/04 02:10:34;;;;;;;1.60;1.20;;;9.00;98.20;;;;;;4998432;28;20856;-76
2023/01/04 02:13:05;;;;;;;1.67;1.30;;;9.00;98.20;;;;;;4988358;28;20484;-77
2023/01/04 02:15:42;;;;;;;1.60;1.30;;;9.00;98.20;;;;;;4992179;28;20469;-76
2023/01/04 02:18:14;;;;;;;1.60;1.20;;;8.90;98.20;;;;;;4991209;28;20476;-77
2023/01/04 02:20:49;;;;;;;1.60;1.20;;;8.90;98.20;;;;;;5022698;28;20463;-76
2023/01/04 02:24:01;;;;;;;1.60;1.20;;;8.90;98.20;;;;;;4967128;28;20489;-76
2023/01/04 02:26:57;;;;;;;1.60;1.20;;;8.90;98.20;;;;;;4983472;28;20482;-77
2023/01/04 02:30:06;;;;;;;1.63;1.30;;;8.80;98.20;;;;;;4991734;28;20481;-77
2023/01/04 02:32:45;;;;;;;1.60;1.20;;;8.80;98.20;;;;;;4951835;28;20479;-77
2023/01/04 02:35:21;;;;;;;1.60;1.20;;;8.80;98.20;;;;;;5014934;28;20459;-77
2023/01/04 02:37:55;;;;;;;1.67;1.30;;;8.80;98.20;;;;;;4994435;28;20491;-77
2023/01/04 02:40:28;;;;;;;1.60;1.20;;;8.80;98.20;;;;;;5010814;28;20456;-77
2023/01/04 02:45:55;;;;;;;1.67;1.33;;;8.80;98.20;;;;;;5001551;28;20887;-75
2023/01/04 02:51:24;;;;;;;1.60;1.20;;;8.90;98.20;;;;;;5000845;28;20607;-76
2023/01/04 02:53:51;;;;;;;1.60;1.20;;;8.90;98.20;;;;;;5003117;28;20476;-77
2023/01/04 02:56:34;;;;;;;1.60;1.20;;;8.90;98.20;;;;;;4998334;28;20475;-77
2023/01/04 02:59:11;;;;;;;1.60;1.20;;;8.90;98.20;;;;;;5006795;28;20834;-77
2023/01/04 03:07:34;;;;;;;1.60;1.20;;;9.00;98.20;;;;;;4995966;28;20699;-74
2023/01/04 03:10:07;;;;;;;1.60;1.20;;;9.00;98.20;;;;;;5010080;28;20472;-77
2023/01/04 03:12:40;;;;;;;1.60;1.20;;;9.10;98.20;;;;;;4998481;28;20499;-78
2023/01/04 03:15:12;;;;;;;1.60;1.20;;;9.10;98.20;;;;;;5009876;28;20484;-77
2023/01/04 03:17:47;;;;;;;1.60;1.20;;;9.10;98.20;;;;;;4995362;28;20833;-75
2023/01/04 03:20:18;;;;;;;1.60;1.17;;;9.20;98.20;;;;;;5021102;28;20451;-75
2023/01/04 03:37:00;;;;;;;1.60;1.10;;;9.40;98.20;;;;;;4996027;28;20531;-76
2023/01/04 03:50:57;;;;;;;1.60;1.20;;;9.50;98.20;;;;;;5010140;28;20961;-76
2023/01/04 03:53:26;;;;;;;1.60;1.13;;;9.60;98.20;;;;;;4994573;28;20504;-76
2023/01/04 03:55:55;;;;;;;1.60;1.20;;;9.60;98.20;;;;;;4998415;28;21503;-76
2023/01/04 03:58:22;;;;;;;1.60;1.20;;;9.60;98.20;;;;;;5000591;28;20457;-76
2023/01/04 04:00:49;;;;;;;1.63;1.20;;;9.60;98.20;;;;;;4999587;28;20484;-76
2023/01/04 04:03:16;;;;;;;1.60;1.20;;;9.70;98.20;;;;;;5007382;28;20871;-76
2023/01/04 04:08:31;;;;;;;1.60;1.13;;;9.70;98.20;;;;;;5017365;28;20478;-76
2023/01/04 04:11:28;;;;;;;1.60;1.10;;;9.70;98.20;;;;;;5019652;28;20502;-76
2023/01/04 04:13:48;;;;;;;1.60;1.20;;;9.80;98.20;;;;;;5039112;28;20550;-74
2023/01/04 04:16:15;;;;;;;1.60;1.30;;;9.80;98.20;;;;;;5024349;28;20482;-75
2023/01/04 04:18:42;;;;;;;1.60;1.20;;;9.80;98.20;;;;;;5039568;28;20470;-74
2023/01/04 04:21:09;;;;;;;1.60;1.10;;;9.80;98.20;;;;;;5020900;28;20486;-75
2023/01/04 04:23:37;;;;;;;1.60;1.10;;;9.80;98.20;;;;;;5042992;28;20466;-75
2023/01/04 04:26:04;;;;;;;1.60;1.17;;;9.80;98.20;;;;;;5020551;28;21335;-75
2023/01/04 04:28:30;;;;;;;1.60;1.10;;;9.80;98.20;;;;;;5043443;28;20464;-74
2023/01/04 04:30:57;;;;;;;1.60;1.20;;;9.80;98.20;;;;;;5016809;28;20475;-76
2023/01/04 04:33:24;;;;;;;1.60;1.20;;;9.80;98.20;;;;;;5042166;28;20467;-75
2023/01/04 04:35:51;;;;;;;1.60;1.10;;;9.80;98.20;;;;;;5018040;28;20479;-76
2023/01/04 04:38:18;;;;;;;1.60;1.20;;;9.80;98.20;;;;;;5046805;28;20570;-74
2023/01/04 04:43:32;;;;;;;1.60;1.10;;;9.80;98.20;;;;;;5019778;28;20490;-73
2023/01/04 04:46:00;;;;;;;1.60;1.20;;;9.80;98.20;;;;;;5018355;28;20890;-74
2023/01/04 04:48:27;;;;;;;1.60;1.20;;;9.80;98.20;;;;;;5042696;28;20463;-76
2023/01/04 04:50:54;;;;;;;1.63;1.30;;;9.80;98.20;;;;;;5018047;28;20490;-76
2023/01/04 04:53:20;;;;;;;1.60;1.20;;;9.80;98.20;;;;;;5040961;28;20455;-76
2023/01/04 04:55:50;;;;;;;1.60;1.20;;;9.80;98.20;;;;;;5021954;28;20475;-76
2023/01/04 04:58:17;;;;;;;1.60;1.10;;;9.90;98.20;;;;;;5041834;28;20476;-76
2023/01/04 05:00:44;;;;;;;1.60;1.10;;;9.90;98.20;;;;;;5028248;28;20470;-76
2023/01/04 05:03:10;;;;;;;1.60;1.10;;;9.90;98.20;;;;;;5036835;28;20483;-75
2023/01/04 05:05:37;;;;;;;1.60;1.10;;;9.90;98.20;;;;;;5026199;28;20733;-75
2023/01/04 05:08:04;;;;;;;1.60;1.30;;;9.90;98.20;;;;;;5031630;28;20605;-74
2023/01/04 05:10:31;;;;;;;1.60;1.20;;;9.90;98.20;;;;;;5027132;28;20474;-74
2023/01/04 05:12:58;;;;;;;1.60;1.17;;;9.90;98.20;;;;;;5036837;28;20656;-73
2023/01/04 05:15:25;;;;;;;1.60;1.20;;;9.90;98.20;;;;;;5027764;28;20483;-74
2023/01/04 05:17:51;;;;;;;1.60;1.20;;;10.00;98.20;;;;;;5035619;28;20906;-75
2023/01/04 05:20:18;;;;;;;1.60;1.13;;;10.00;98.20;;;;;;5024950;28;20497;-74
2023/01/04 05:22:45;;;;;;;1.60;1.10;;;10.00;98.20;;;;;;5034847;28;20498;-73
2023/01/04 05:25:11;;;;;;;1.60;1.20;;;10.00;98.20;;;;;;5028822;28;20505;-73
2023/01/04 05:27:38;;;;;;;1.60;1.10;;;10.00;98.20;;;;;;5034293;28;20922;-75
2023/01/04 05:32:52;;;;;;;1.63;1.20;;;10.10;98.20;;;;;;5034729;28;20503;-75
2023/01/04 05:35:18;;;;;;;1.60;1.20;;;10.10;98.20;;;;;;5026834;28;20482;-76
2023/01/04 05:37:45;;;;;;;1.60;1.20;;;10.10;98.20;;;;;;5030790;28;20824;-76
2023/01/04 05:40:12;;;;;;;1.60;1.13;;;10.10;98.20;;;;;;5027540;28;20870;-76
2023/01/04 05:42:39;;;;;;;1.60;1.20;;;10.10;98.20;;;;;;5036545;28;20565;-75
2023/01/04 05:45:08;;;;;;;1.60;1.20;;;10.10;98.20;;;;;;5028110;28;20487;-75
2023/01/04 05:47:35;;;;;;;1.60;1.10;;;10.20;98.20;;;;;;5032653;28;20501;-75
2023/01/04 05:50:02;;;;;;;1.60;1.20;;;10.20;98.20;;;;;;5027681;28;20485;-75
2023/01/04 05:52:31;;;;;;;1.60;1.20;;;10.20;98.20;;;;;;5033720;28;20481;-75
2023/01/04 05:54:58;;;;;;;1.60;1.20;;;10.20;98.20;;;;;;5028100;28;20494;-75
2023/01/04 05:57:25;;;;;;;1.63;1.20;;;10.30;98.20;;;;;;5031391;28;20478;-74
2023/01/04 05:59:51;;;;;;;1.60;1.10;;;10.40;98.20;;;;;;5022445;28;20956;-75
2023/01/04 06:02:22;;;;;;;1.60;1.20;;;10.40;98.20;;;;;;5032178;28;20485;-75
2023/01/04 06:04:49;;;;;;;1.60;1.20;;;10.50;98.20;;;;;;5028122;28;20999;-74
2023/01/04 06:07:16;;;;;;;1.60;1.20;;;10.50;98.20;;;;;;5031067;28;20474;-73
2023/01/04 06:09:44;;;;;;;1.60;1.10;;;10.60;98.20;;;;;;5030684;28;20958;-74
2023/01/04 06:12:11;;;;;;;1.60;1.20;;;10.70;98.20;;;;;;5029322;28;20478;-74
2023/01/04 06:14:37;;;;;;;1.60;1.10;;;10.80;98.20;;;;;;5034691;28;20482;-74
2023/01/04 06:17:04;;;;;;;1.60;1.10;;;10.80;98.20;;;;;;5033763;28;20517;-74
2023/01/04 06:19:33;;;;;;;1.60;1.10;;;10.80;98.20;;;;;;5034827;28;20955;-74
2023/01/04 06:22:00;;;;;;;1.60;1.10;;;10.80;98.20;;;;;;5030459;28;20533;-74
2023/01/04 06:24:26;;;;;;;1.60;1.10;;;10.80;98.20;;;;;;5036172;28;20683;-74
2023/01/04 06:26:53;;;;;;;1.60;1.10;;;10.80;98.20;;;;;;5027556;28;20574;-74
2023/01/04 06:29:20;;;;;;;1.60;1.10;;;10.80;98.20;;;;;;5037970;28;20490;-73
2023/01/04 06:31:47;;;;;;;1.60;1.13;;;10.80;98.20;;;;;;5031703;28;20482;-74
2023/01/04 06:34:15;;;;;;;1.80;1.47;;;10.80;98.20;;;;;;5037798;28;20463;-73
2023/01/04 06:36:43;;;;;;;1.60;1.10;;;10.80;98.20;;;;;;5031682;28;20486;-73
2023/01/04 06:39:10;;;;;;;1.60;1.10;;;10.80;98.20;;;;;;5037844;28;20947;-74
2023/01/04 06:41:37;;;;;;;1.60;1.10;;;10.80;98.20;;;;;;5030305;28;20477;-75
2023/01/04 06:44:04;;;;;;;1.60;1.10;;;10.90;98.20;;;;;;5038870;28;21441;-74
2023/01/04 06:46:31;;;;;;;1.60;1.10;;;10.90;98.20;;;;;;5028623;28;20489;-74
2023/01/04 06:48:57;;;;;;;1.60;1.10;;;10.90;98.20;;;;;;5038497;28;20925;-74
2023/01/04 06:51:24;;;;;;;1.60;1.10;;;11.00;98.20;;;;;;5023745;28;20486;-74
2023/01/04 06:53:52;;;;;;;1.60;1.10;;;11.00;98.20;;;;;;5038373;28;20466;-74
2023/01/04 06:56:19;;;;;;;1.60;1.17;;;11.00;98.20;;;;;;5026616;28;20477;-74
2023/01/04 06:58:46;;;;;;;1.60;1.10;;;11.10;98.20;;;;;;5040275;28;20470;-74
2023/01/04 07:01:12;;;;;;;1.60;1.10;;;11.20;98.20;;;;;;5024892;28;20481;-74
2023/01/04 07:03:39;;;;;;;1.60;1.10;;;11.20;98.20;;;;;;5043427;28;20472;-73
2023/01/04 07:06:07;;;;;;;1.60;1.20;;;11.30;98.20;;;;;;5022564;28;20485;-74
2023/01/04 07:08:34;;;;;;;1.60;1.10;;;11.30;98.20;;;;;;5043078;28;20470;-74
2023/01/04 07:11:03;;;;;;;1.60;1.10;;;11.40;98.20;;;;;;5022168;28;20459;-73
2023/01/04 07:13:29;;;;;;;1.60;1.10;;;11.40;98.20;;;;;;5045204;28;20821;-73
2023/01/04 07:15:56;;;;;;;1.60;1.10;;;11.40;98.20;;;;;;5026409;28;20479;-74
2023/01/04 07:18:23;;;;;;;1.60;1.10;;;11.50;98.20;;;;;;5041336;28;20474;-73
2023/01/04 07:20:50;;;;;;;1.60;1.20;;;11.50;98.20;;;;;;5013010;28;20536;-74
2023/01/04 07:23:17;;;;;;;2.70;2.50;;;11.50;98.20;;;;;;5032246;28;20468;-73
2023/01/04 07:25:44;;;;;;;1.60;1.10;;;11.60;98.20;;;;;;5004990;28;20597;-73
2023/01/04 07:29:13;;;;;;;1.60;1.10;;;11.60;98.20;;;;;;5015439;28;20512;-73
2023/01/04 07:30:58;;;;;;;1.60;1.10;;;11.60;98.20;;;;;;4995127;28;20452;-73
2023/01/04 07:33:25;;;;;;;1.60;1.10;;;11.60;98.20;;;;;;5021383;28;20856;-73
2023/01/04 07:35:52;;;;;;;1.60;1.20;;;11.60;98.20;;;;;;4992697;28;20484;-73
2023/01/04 07:38:18;;;;;;;1.60;1.10;;;11.70;98.20;;;;;;5023351;28;20467;-74
2023/01/04 07:40:45;;;;;;;1.60;1.03;;;11.70;98.20;;;;;;5004331;28;20974;-74
2023/01/04 07:43:13;;;;;;;1.60;1.10;;;11.70;98.20;;;;;;5014411;28;20476;-73
2023/01/04 07:45:45;;;;;;;1.60;1.20;;;11.70;98.20;;;;;;5004281;28;20480;-74
2023/01/04 07:48:11;;;;;;;1.60;1.10;;;11.70;98.20;;;;;;4994185;28;20922;-73
2023/01/04 07:50:38;;;;;;;1.60;1.10;;;11.80;98.20;;;;;;5002914;28;20464;-75
2023/01/04 07:53:05;;;;;;;1.60;1.10;;;11.80;98.20;;;;;;5010178;28;20916;-75
2023/01/04 07:55:32;;;;;;;1.60;1.07;;;11.80;98.20;;;;;;5005844;28;20490;-74
2023/01/04 07:57:59;;;;;;;1.60;1.13;;;11.80;98.20;;;;;;5003296;28;20494;-75
2023/01/04 08:00:27;;;;;;;1.60;1.20;;;11.80;98.20;;;;;;5004033;28;20473;-74
2023/01/04 08:02:53;;;;;;;1.67;1.20;;;11.80;98.20;;;;;;5011443;28;20719;-76
2023/01/04 08:05:21;;;;;;;1.60;1.10;;;11.90;98.20;;;;;;5005296;28;20493;-77
2023/01/04 08:07:48;;;;;;;1.60;1.10;;;11.90;98.20;;;;;;5006695;28;20478;-76
2023/01/04 08:10:15;;;;;;;1.60;1.13;;;11.90;98.20;;;;;;5004528;28;20460;-75
2023/01/04 08:12:42;;;;;;;1.60;1.20;;;11.90;98.20;;;;;;5006072;28;20483;-73
2023/01/04 08:15:09;;;;;;;1.60;1.17;;;11.90;98.20;;;;;;5003406;28;20481;-76
2023/01/04 08:17:37;;;;;;;1.60;1.20;;;11.90;98.20;;;;;;5009968;28;21035;-76
2023/01/04 08:20:05;;;;;;;1.60;1.10;;;11.90;98.20;;;;;;5004989;28;20487;-74
2023/01/04 08:22:32;;;;;;;1.60;1.10;;;11.90;98.20;;;;;;5006736;28;20475;-73
2023/01/04 08:24:59;;;;;;;1.60;1.00;;;12.00;98.20;;;;;;5004976;28;20489;-75
2023/01/04 08:27:26;;;;;;;1.63;1.10;;;12.00;98.20;;;;;;5007178;28;20485;-73
2023/01/04 08:29:52;;;;;;;1.60;1.10;;;12.00;98.20;;;;;;5003842;28;20464;-74
2023/01/04 08:32:19;;;;;;;1.60;1.30;;;12.00;98.20;;;;;;5005742;28;20884;-75
2023/01/04 08:34:47;;;;;;;1.60;1.10;;;12.00;98.20;;;;;;5002987;28;20488;-75
2023/01/04 08:37:14;;;;;;;1.60;1.10;;;12.00;98.20;;;;;;5000659;28;20511;-75
2023/01/04 08:39:41;;;;;;;1.60;1.10;;;12.00;98.20;;;;;;5012024;28;20474;-76
2023/01/04 08:42:07;;;;;;;1.60;1.00;;;12.00;98.20;;;;;;5001512;28;21046;-75
2023/01/04 08:44:34;;;;;;;1.60;1.00;;;12.00;98.20;;;;;;4998674;28;20495;-72
2023/01/04 08:47:01;;;;;;;1.60;1.00;;;12.00;98.20;;;;;;4996420;28;20507;-74
2023/01/04 08:49:28;;;;;;;1.60;1.10;;;12.00;98.20;;;;;;5004671;28;20468;-74
2023/01/04 08:51:56;;;;;;;1.60;1.10;;;12.10;98.20;;;;;;4999791;28;20483;-77
2023/01/04 08:54:23;;;;;;;1.60;1.00;;;12.10;98.20;;;;;;5006568;28;20474;-75
2023/01/04 08:56:50;;;;;;;1.60;1.00;;;12.10;98.20;;;;;;4995710;28;20502;-77
2023/01/04 08:59:17;;;;;;;1.60;1.10;;;12.10;98.20;;;;;;5010357;28;20471;-76
2023/01/04 09:01:44;;;;;;;1.60;1.10;;;12.10;98.20;;;;;;4996449;28;20980;-73
2023/01/04 09:04:11;;;;;;;1.60;1.10;;;12.20;98.20;;;;;;5011178;28;20469;-76
2023/01/04 09:06:38;;;;;;;1.60;1.10;;;12.20;98.20;;;;;;4995472;28;20929;-73
2023/01/04 09:09:07;;;;;;;1.60;1.00;;;12.20;98.20;;;;;;5007143;28;20465;-73
2023/01/04 09:11:34;;;;;;;1.60;1.03;;;12.20;98.20;;;;;;4998186;28;20494;-77
2023/01/04 09:14:01;;;;;;;1.60;1.00;;;12.30;98.20;;;;;;5014019;28;20561;-76
2023/01/04 09:16:27;;;;;;;1.60;1.10;;;12.30;98.20;;;;;;4997849;28;21011;-75
2023/01/04 09:18:55;;;;;;;1.60;1.00;;;12.30;98.20;;;;;;5012845;28;20468;-76
2023/01/04 09:21:22;;;;;;;1.60;1.10;;;12.30;98.20;;;;;;4991493;28;20483;-75
2023/01/04 09:23:49;;;;;;;1.60;1.00;;;12.40;98.20;;;;;;4996740;28;20567;-75
2023/01/04 09:26:21;;;;;;;1.60;1.10;;;12.40;98.20;;;;;;4991578;28;20489;-76
2023/01/04 09:28:48;;;;;;;1.60;1.00;;;12.40;98.20;;;;;;5007586;28;20468;-76
2023/01/04 09:31:17;;;;;;;1.60;1.00;;;12.40;98.20;;;;;;4993075;28;20478;-75
2023/01/04 09:33:45;;;;;;;1.60;1.10;;;12.50;98.20;;;;;;5013382;28;20571;-74
2023/01/04 09:36:15;;;;;;;1.60;1.10;;;12.50;98.20;;;;;;4992463;28;20486;-75
2023/01/04 09:38:43;;;;;;;1.60;1.00;;;12.50;98.20;;;;;;5013972;28;20518;-77
2023/01/04 09:41:19;;;;;;;1.60;1.10;;;12.60;98.20;;;;;;4997576;28;20480;-77
2023/01/04 09:43:48;;;;;;;1.60;1.10;;;12.60;98.20;;;;;;5014684;28;20460;-76
2023/01/04 09:46:23;;;;;;;1.60;1.07;;;12.60;98.20;;;;;;4991683;28;20483;-74
2023/01/04 09:48:53;;;;;;;1.60;1.10;;;12.60;98.20;;;;;;5011519;28;20914;-76
2023/01/04 09:51:23;;;;;;;1.60;1.10;;;12.60;98.20;;;;;;4987310;28;20479;-76
2023/01/04 09:53:55;;;;;;;1.60;1.03;;;12.60;98.20;;;;;;5006953;28;20510;-79
2023/01/04 09:56:29;;;;;;;1.60;1.10;;;12.60;98.20;;;;;;4993090;28;20490;-76
2023/01/04 09:58:57;;;;;;;1.60;1.00;;;12.70;98.20;;;;;;5003840;28;20527;-75
2023/01/04 10:01:28;;;;;;;1.60;1.00;;;12.70;98.20;;;;;;4994041;28;20975;-75
2023/01/04 10:16:49;;;;;;;1.63;1.10;;;12.60;98.20;;;;;;5068356;27;20587;-73
2023/01/04 10:19:31;;;;;;;1.60;1.20;;;12.60;98.20;;;;;;5057622;28;20905;-73
2023/01/04 10:22:01;;;;;;;1.60;1.10;;;12.50;98.20;;;;;;5063617;28;20925;-75
2023/01/04 10:24:57;;;;;;;1.60;1.10;;;12.50;98.20;;;;;;5064492;28;20500;-75
2023/01/04 10:27:34;;;;;;;1.60;1.20;;;12.50;98.20;;;;;;5064359;28;20516;-75
2023/01/04 10:30:16;;;;;;;1.60;1.10;;;12.50;98.20;;;;;;5060760;28;20480;-76
2023/01/04 10:32:48;;;;;;;1.60;1.10;;;12.40;98.20;;;;;;5056551;23;20490;-78
2023/01/04 10:35:20;;;;;;;1.60;1.20;;;12.40;98.20;;;;;;5039819;28;20458;-77
2023/01/04 10:37:52;;;;;;;1.60;1.10;;;12.40;98.20;;;;;;5042984;28;20504;-73
2023/01/04 10:40:19;;;;;;;1.60;1.10;;;12.40;98.20;;;;;;5043642;28;20473;-76
2023/01/04 10:42:57;;;;;;;1.60;1.00;;;12.40;98.20;;;;;;5025235;28;20483;-75
2023/01/04 10:45:32;;;;;;;1.60;1.20;;;12.40;98.20;;;;;;5005034;28;20490;-78
2023/01/04 10:48:08;;;;;;;1.60;1.10;;;12.30;98.20;;;;;;5010087;28;20540;-77
2023/01/04 10:50:41;;;;;;;1.60;1.10;;;12.40;98.20;;;;;;4999182;28;20467;-76
2023/01/04 10:53:16;;;;;;;1.60;1.10;;;12.40;98.20;;;;;;4995560;28;20472;-76
2023/01/04 10:55:48;;;;;;;1.60;1.10;;;12.40;98.20;;;;;;5004139;28;20459;-76
2023/01/04 10:58:24;;;;;;;1.60;1.10;;;12.40;98.20;;;;;;5002412;28;20464;-77
2023/01/04 11:04:25;;;;;;;1.60;1.03;;;12.40;98.20;;;;;;4990286;28;20476;-75
2023/01/04 11:07:16;;;;;;;1.60;1.27;;;12.40;98.20;;;;;;4994427;28;20854;-73
2023/01/04 11:09:49;;;;;;;1.60;1.03;;;12.40;98.20;;;;;;4986970;28;20518;-74
2023/01/04 11:12:21;;;;;;;1.60;1.10;;;12.50;98.20;;;;;;4993955;28;20492;-78
2023/01/04 11:14:48;;;;;;;1.60;1.10;;;12.40;98.20;;;;;;5005584;28;20854;-76
2023/01/04 11:17:15;;;;;;;1.60;1.10;;;12.40;98.20;;;;;;5000808;28;20494;-76
2023/01/04 11:19:44;;;;;;;1.60;1.10;;;12.40;98.20;;;;;;5002210;28;20471;-76
2023/01/04 11:22:15;;;;;;;1.60;1.20;;;12.40;98.20;;;;;;5000452;28;21157;-75
2023/01/04 11:24:45;;;;;;;1.60;1.10;;;12.40;98.20;;;;;;4997537;28;20471;-76
2023/01/04 11:27:17;;;;;;;1.60;1.20;;;12.40;98.20;;;;;;4985342;28;20935;-75
2023/01/04 11:29:51;;;;;;;1.60;1.20;;;12.40;98.20;;;;;;4985757;28;20663;-76
2023/01/04 11:32:27;;;;;;;1.60;1.10;;;12.50;98.20;;;;;;4995511;28;20486;-74
2023/01/04 11:34:56;;;;;;;1.60;1.00;;;12.50;98.20;;;;;;5006015;28;20456;-76
2023/01/04 11:37:26;;;;;;;1.60;1.10;;;12.50;98.20;;;;;;5002539;28;20869;-76
2023/01/04 11:40:19;;;;;;;1.60;1.10;;;12.50;98.20;;;;;;5004092;28;20460;-74
2023/01/04 11:42:47;;;;;;;1.60;1.20;;;12.60;98.20;;;;;;5006881;28;21064;-76
2023/01/04 11:45:21;;;;;;;1.60;1.10;;;12.60;98.20;;;;;;5002642;28;20488;-76
2023/01/04 11:47:50;;;;;;;1.60;1.10;;;12.60;98.20;;;;;;5008659;28;20495;-76
2023/01/04 11:50:42;;;;;;;1.60;1.10;;;12.60;98.20;;;;;;5005681;28;20479;-75
2023/01/04 11:53:23;;;;;;;1.60;1.17;;;12.70;98.20;;;;;;5009019;28;20492;-74
2023/01/04 11:55:50;;;;;;;1.60;1.10;;;12.70;98.20;;;;;;4993634;28;20951;-75
2023/01/04 11:58:19;;;;;;;1.60;1.10;;;12.70;98.20;;;;;;5018409;28;20468;-76
2023/01/04 12:00:51;;;;;;;1.60;1.03;;;12.70;98.20;;;;;;5005243;28;20467;-76
2023/01/04 12:03:25;;;;;;;1.60;1.10;;;12.70;98.20;;;;;;4994952;28;21003;-75
2023/01/04 12:05:54;;;;;;;1.60;1.10;;;12.80;98.20;;;;;;4994547;28;20928;-76
2023/01/04 12:08:29;;;;;;;1.60;1.10;;;12.80;98.20;;;;;;5015718;28;20869;-75
2023/01/04 12:10:56;;;;;;;1.60;1.10;;;12.80;98.20;;;;;;4994684;28;20804;-74
2023/01/04 12:13:23;;;;;;;1.60;1.17;;;12.80;98.20;;;;;;5017392;28;20483;-76
2023/01/04 12:16:00;;;;;;;1.60;1.10;;;12.90;98.20;;;;;;4995026;28;20456;-75
2023/01/04 12:18:30;;;;;;;1.60;1.10;;;12.90;98.20;;;;;;5014605;28;20512;-75
2023/01/04 12:21:02;;;;;;;1.60;1.00;;;12.90;98.20;;;;;;4993968;28;20465;-76
2023/01/04 12:23:29;;;;;;;1.60;1.00;;;12.90;98.20;;;;;;5014809;28;20497;-76
2023/01/04 12:25:56;;;;;;;1.60;1.00;;;12.90;98.20;;;;;;4985008;28;20522;-74
2023/01/04 12:28:32;;;;;;;1.60;1.00;;;13.00;98.20;;;;;;5012343;28;20964;-76
2023/01/04 12:31:27;;;;;;;1.60;1.00;;;13.00;98.20;;;;;;4988680;28;20469;-76
2023/01/04 12:33:56;;;;;;;1.60;1.07;;;13.00;98.20;;;;;;4975591;28;20519;-75
2023/01/04 12:36:55;;;;;;;1.60;1.00;;;13.00;98.20;;;;;;4991564;28;20833;-75
2023/01/04 12:39:41;;;;;;;1.60;1.10;;;12.90;98.20;;;;;;5006718;28;20472;-75
2023/01/04 12:42:23;;;;;;;1.60;1.10;;;12.90;98.20;;;;;;5000766;28;20533;-75
2023/01/04 12:45:17;;;;;;;1.60;1.10;;;12.90;98.20;;;;;;5002907;28;20464;-74
2023/01/04 12:51:17;;;;;;;1.60;1.10;;;12.90;98.20;;;;;;5000850;28;20552;-74
2023/01/04 12:54:21;;;;;;;1.60;1.20;;;12.80;98.20;;;;;;4987489;28;20495;-76
2023/01/04 12:57:23;;;;;;;1.60;1.00;;;12.80;98.20;;;;;;4995564;28;21002;-75
2023/01/04 12:59:54;;;;;;;1.60;1.10;;;12.80;98.20;;;;;;5000443;28;20464;-73
2023/01/04 13:02:23;;;;;;;1.60;1.10;;;12.80;98.20;;;;;;5007963;28;20494;-74
2023/01/04 13:04:52;;;;;;;1.60;1.20;;;12.80;98.20;;;;;;5004630;28;20467;-76
2023/01/04 13:07:22;;;;;;;1.60;1.00;;;12.80;98.20;;;;;;5006839;28;20495;-77
2023/01/04 13:09:57;;;;;;;1.60;1.10;;;12.80;98.20;;;;;;5003747;28;20468;-78
2023/01/04 13:12:54;;;;;;;1.60;1.20;;;12.90;98.20;;;;;;5005936;28;20952;-75
2023/01/04 13:15:25;;;;;;;1.60;1.10;;;12.90;98.20;;;;;;5003069;28;20456;-73
2023/01/04 13:17:52;;;;;;;1.60;1.00;;;12.90;98.20;;;;;;5013643;28;20985;-74
2023/01/04 13:20:22;;;;;;;1.60;1.10;;;12.90;98.20;;;;;;4999703;28;20468;-73
2023/01/04 13:22:53;;;;;;;1.60;1.00;;;12.90;98.20;;;;;;5005446;28;20482;-75
2023/01/04 13:25:23;;;;;;;1.60;1.10;;;12.90;98.20;;;;;;5002554;28;20460;-76
2023/01/04 13:27:58;;;;;;;1.60;1.10;;;12.90;98.20;;;;;;5006824;28;20583;-73
2023/01/04 13:30:31;;;;;;;1.60;1.00;;;12.90;98.20;;;;;;4999847;28;20468;-74
2023/01/04 13:32:58;;;;;;;1.60;1.10;;;12.90;98.20;;;;;;5004418;28;20486;-76
2023/01/04 13:35:25;;;;;;;1.57;1.00;;;12.90;98.20;;;;;;4999818;28;20496;-74
2023/01/04 13:37:52;;;;;;;1.60;1.00;;;12.90;98.20;;;;;;5005535;28;20486;-74
2023/01/04 13:40:25;;;;;;;1.60;1.10;;;12.90;98.20;;;;;;5002504;28;20556;-78
2023/01/04 13:43:06;;;;;;;1.60;1.20;;;12.90;98.20;;;;;;5009729;28;20499;-74
2023/01/04 13:45:49;;;;;;;1.60;1.10;;;12.90;98.20;;;;;;5000939;28;20808;-73
2023/01/04 13:48:20;;;;;;;1.60;1.10;;;13.00;98.20;;;;;;4992330;28;20862;-75
2023/01/04 13:50:59;;;;;;;1.60;1.10;;;13.00;98.20;;;;;;4999236;28;20475;-74
2023/01/04 13:53:28;;;;;;;1.57;1.00;;;13.00;98.20;;;;;;4987676;28;20479;-74
2023/01/04 13:55:59;;;;;;;1.60;1.10;;;13.00;98.20;;;;;;4990129;28;20456;-74
2023/01/04 13:58:27;;;;;;;1.60;1.10;;;13.00;98.20;;;;;;5012508;28;21035;-76
2023/01/04 14:00:58;;;;;;;1.60;1.10;;;13.00;98.20;;;;;;4994571;28;20687;-75
2023/01/04 14:03:35;;;;;;;1.60;1.10;;;13.00;98.20;;;;;;5020765;28;20494;-76
2023/01/04 14:06:18;;;;;;;1.53;1.00;;;13.00;98.20;;;;;;4991788;28;20496;-75
2023/01/04 14:08:52;;;;;;;1.60;1.10;;;13.00;98.20;;;;;;5008976;28;20467;-73
2023/01/04 14:14:24;;;;;;;1.60;1.00;;;13.10;98.20;;;;;;5009914;28;20595;-76
2023/01/04 14:16:53;;;;;;;1.60;1.00;;;13.10;98.20;;;;;;5000447;28;20872;-76